METAR Data
IDs: Format: Raw Decoded Include TAF

Data at: 0821 UTC 20 Sep 2018

METAR for:TIST (St Thomas/King Arpt, --, VI)
Text:TIST 200753Z AUTO 10012KT 9SM HZ CLR 29/25 A2995 RMK AO2 SLP143 T02890250
Temperature: 28.9°C ( 84°F)
Dewpoint: 25.0°C ( 77°F) [RH = 80%]
Pressure (altimeter):29.95 inches Hg (1014.3 mb) [Sea level pressure: 1014.3 mb]
Winds:from the E (100 degrees) at 14 MPH (12 knots; 6.2 m/s)
Visibility: 9 sm ( 14 km)
Ceiling:at least 12,000 feet AGL
Clouds:sky clear below 12,000 feet AGL
Weather:HZ (haze)
QC Flag:automated observation with no human augmentation